Terminal Aerodrome Forecast
Issued by NWS

Home | Current Version | Previous Version | Text Only | Print | Product List | Glossary On
Versions: 1 2 3 4 5 6 7 8 9 10 11 12 13 14
000
FTUS43 KGRB 290751 AAA
TAFATW
TAF AMD
KATW 290751Z 2908/3006 18003KT 6SM -RA SCT022 OVC040
      TEMPO 2908/2910 4SM -RA BR BKN022
     FM291000 VRB03KT 4SM -RA BR SCT015 OVC022
     FM291500 15005KT 5SM BR VCSH BKN010 OVC022
     FM292100 17005KT P6SM FEW025 BKN050
     FM300000 VRB03KT P6SM FEW050=

USA.gov is the U.S. government's official web portal to all federal, state and local government web resources and services.